This demonstration page uses our WeatherBlox Daily Observations layout. Learn more.

39.92423, -83.80882

Hourly Observations for December 5, 2019

Temp ( °F °C ) Dew Point ( °F °C ) Humidity (%) Winds ( mph kmh ) Pressure ( in mb ) Visibility ( mi km ) Precip ( " mm )
12:49 am 00:49 Mostly Cloudy 36 2 30 -1 81 81 W 9 15 29.91 1013 10 16.0934 0 0
12:56 am 00:56 Mostly Cloudy 35 1.7 31 -0.6 85 85 W 10 17 29.9 1013 10 16.0934 0 0
1:53 am 01:53 Cloudy 36 2 32 0 87 87 NW 13 20 29.94 1014 10 16.0934 0 0
1:56 am 01:56 Cloudy 36 2.2 32 0 86 86 WNW 10 17 29.92 1013 10 16.0934 0 0
2:56 am 02:56 Mostly Cloudy 34 1.1 27 -2.8 76 76 NW 9 15 29.96 1015 10 16.0934 0 0
3:56 am 03:56 Clear 32 0 29 -1.7 88 88 W 8 13 29.99 1016 10 16.0934 0 0
4:56 am 04:56 Clear 30 -1.1 27 -2.8 88 88 W 8 13 30 1016 10 16.0934 0 0
5:56 am 05:56 Clear 29 -1.7 28 -2.2 96 96 WSW 7 11 30.02 1017 10 16.0934 0 0
6:56 am 06:56 Clear 29 -1.7 28 -2.2 96 96 WSW 6 9 30.05 1018 10 16.0934 0 0
7:56 am 07:56 Sunny 29 -1.7 28 -2.2 96 96 WSW 8 13 30.07 1018 10 16.0934 0 0
8:56 am 08:56 Sunny 32 0 30 -1.1 92 92 WSW 6 9 30.09 1019 10 16.0934 0 0
9:56 am 09:56 Sunny 36 2.2 30 -1.1 79 79 W 5 7 30.11 1020 10 16.0934 0 0
10:56 am 10:56 Sunny 39 3.9 27 -2.8 62 62 W 10 17 30.13 1020 10 16.0934 0 0
11:56 am 11:56 Sunny 42 5.6 28 -2.2 58 58 VRB 6 9 30.11 1020 10 16.0934 0 0
12:56 pm 12:56 Sunny 43 6.1 28 -2.2 56 56 VRB 6 9 30.1 1019 10 16.0934 0 0
1:56 pm 13:56 Sunny 44 6.7 28 -2.2 53 53 WSW 7 11 30.1 1019 10 16.0934 0 0
2:56 pm 14:56 Sunny 45 7.2 27 -2.8 49 49 W 9 15 30.09 1019 10 16.0934 0 0
3:56 pm 15:56 Sunny 45 7.2 27 -2.8 49 49 WSW 7 11 30.1 1019 10 16.0934 0 0
4:56 pm 16:56 Sunny 42 5.6 28 -2.2 58 58 S 3 6 30.1 1019 10 16.0934 0 0
5:56 pm 17:56 Clear 38 3.3 27 -2.8 65 65 SSW 5 7 30.11 1020 10 16.0934 0 0
6:56 pm 18:56 Clear 38 3.3 28 -2.2 68 68 S 6 9 30.11 1020 10 16.0934 0 0
7:56 pm 19:56 Clear 38 3.3 28 -2.2 68 68 SSW 6 9 30.11 1020 10 16.0934 0 0
8:56 pm 20:56 Clear 38 3.3 29 -1.7 70 70 S 7 11 30.1 1019 10 16.0934 0 0
9:56 pm 21:56 Clear 38 3.3 29 -1.7 70 70 S 7 11 30.09 1019 10 16.0934 0 0
10:56 pm 22:56 Clear 36 2.2 28 -2.2 73 73 S 5 7 30.09 1019 10 16.0934 0 0
11:56 pm 23:56 Clear 36 2.2 28 -2.2 73 73 SSE 5 7 30.08 1019 10 16.0934 0 0

Powered by AerisWeather